createdAt,value
2019-01-11T00:00:27.073Z,7.27
2019-01-11T00:02:55.292Z,8.93
2019-01-11T00:05:23.545Z,6.67
2019-01-11T00:07:51.832Z,7.20
2019-01-11T00:10:20.154Z,7.30
2019-01-11T00:12:48.376Z,6.87
2019-01-11T00:15:16.628Z,6.70
2019-01-11T00:17:44.841Z,5.63
2019-01-11T00:20:13.161Z,7.33
2019-01-11T00:22:41.385Z,7.37
2019-01-11T00:25:09.801Z,6.00
2019-01-11T00:27:38.026Z,7.53
2019-01-11T00:30:07.881Z,6.80
2019-01-11T00:32:36.168Z,6.63
2019-01-11T00:35:05.485Z,6.20
2019-01-11T00:37:33.704Z,6.37
2019-01-11T00:40:01.958Z,7.80
2019-01-11T00:42:30.177Z,5.90
2019-01-11T00:44:58.402Z,6.73
2019-01-11T00:47:26.649Z,6.60
2019-01-11T00:49:54.877Z,8.63
2019-01-11T00:52:23.130Z,6.80
2019-01-11T00:54:51.349Z,7.43
2019-01-11T00:57:19.605Z,7.27
2019-01-11T00:59:48.162Z,7.57
2019-01-11T01:02:16.482Z,8.97
2019-01-11T01:04:44.701Z,7.63
2019-01-11T01:07:13.023Z,6.60
2019-01-11T01:09:41.245Z,6.73
2019-01-11T01:12:09.638Z,6.60
2019-01-11T01:14:37.934Z,6.70
2019-01-11T01:17:06.245Z,6.97
2019-01-11T01:19:34.541Z,8.17
2019-01-11T01:22:02.849Z,6.57
2019-01-11T01:24:31.072Z,7.93
2019-01-11T01:26:59.321Z,6.60
2019-01-11T01:29:27.541Z,7.23
2019-01-11T01:31:55.788Z,8.27
2019-01-11T01:34:24.012Z,5.40
2019-01-11T01:36:52.266Z,6.50
2019-01-11T01:39:20.481Z,6.57
2019-01-11T01:41:48.729Z,6.37
2019-01-11T01:44:16.949Z,6.53
2019-01-11T01:46:45.268Z,6.97
2019-01-11T01:49:13.489Z,5.77
2019-01-11T01:51:41.736Z,6.60
2019-01-11T01:54:10.060Z,6.23
2019-01-11T01:56:38.277Z,7.23
2019-01-11T01:59:06.531Z,6.43
2019-01-11T02:01:34.750Z,6.40
2019-01-11T02:04:03.001Z,6.13
2019-01-11T02:06:31.222Z,6.33
2019-01-11T02:08:59.473Z,6.07
2019-01-11T02:11:27.696Z,6.07
2019-01-11T02:13:56.009Z,8.47
2019-01-11T02:16:24.287Z,10.13
2019-01-11T02:18:52.661Z,8.63
2019-01-11T02:21:20.882Z,7.13
2019-01-11T02:23:49.125Z,6.20
2019-01-11T02:26:17.613Z,5.90
2019-01-11T02:28:45.873Z,6.47
2019-01-11T02:31:14.089Z,7.90
2019-01-11T02:33:42.333Z,6.33
2019-01-11T02:36:10.544Z,6.20
2019-01-11T02:38:38.779Z,6.07
2019-01-11T02:41:06.997Z,7.30
2019-01-11T02:43:35.242Z,6.70
2019-01-11T02:46:03.524Z,5.83
2019-01-11T02:48:31.776Z,10.07
2019-01-11T02:50:59.983Z,7.20
2019-01-11T02:53:28.224Z,7.00
2019-01-11T02:55:56.435Z,6.17
2019-01-11T02:58:24.678Z,6.70
2019-01-11T03:00:52.891Z,4.73
2019-01-11T03:03:21.132Z,7.50
2019-01-11T03:05:49.611Z,6.70
2019-01-11T03:08:17.851Z,9.17
2019-01-11T03:10:46.132Z,8.47
2019-01-11T03:13:14.439Z,8.77
2019-01-11T03:15:42.652Z,6.40
2019-01-11T03:18:10.861Z,8.33
2019-01-11T03:20:39.095Z,7.23
2019-01-11T03:23:07.307Z,9.50
2019-01-11T03:25:35.542Z,6.20
2019-01-11T03:28:03.680Z,9.37
2019-01-11T03:30:31.925Z,7.60
2019-01-11T03:33:00.135Z,8.30
2019-01-11T03:35:28.375Z,7.37
2019-01-11T03:37:56.586Z,10.33
2019-01-11T03:40:25.993Z,7.13
2019-01-11T03:42:54.372Z,9.03
2019-01-11T03:45:23.689Z,7.70
2019-01-11T03:47:52.069Z,7.67
2019-01-11T03:50:20.482Z,7.87
2019-01-11T03:52:48.697Z,7.77
2019-01-11T03:55:17.213Z,7.67
2019-01-11T03:57:45.495Z,7.60
2019-01-11T04:00:15.180Z,6.87
2019-01-11T04:02:43.392Z,7.60
2019-01-11T04:05:11.701Z,7.43
2019-01-11T04:07:39.921Z,9.80
2019-01-11T04:10:12.873Z,9.40
2019-01-11T04:12:41.085Z,7.50
2019-01-11T04:15:10.766Z,7.07
2019-01-11T04:17:38.979Z,6.87
2019-01-11T04:20:14.570Z,7.43
2019-01-11T04:22:44.496Z,6.90
2019-01-11T04:25:14.544Z,7.13
2019-01-11T04:27:42.751Z,5.67
2019-01-11T04:30:12.672Z,8.87
2019-01-11T04:32:40.883Z,10.00
2019-01-11T04:35:09.197Z,8.73
2019-01-11T04:37:37.399Z,7.47
2019-01-11T04:40:06.617Z,6.97
2019-01-11T04:42:34.836Z,6.93
2019-01-11T04:45:03.152Z,6.93
2019-01-11T04:47:31.368Z,10.27
2019-01-11T04:49:59.607Z,8.53
2019-01-11T04:52:27.822Z,7.50
2019-01-11T04:54:56.051Z,8.23
2019-01-11T04:57:24.264Z,8.17
2019-01-11T04:59:52.475Z,7.93
2019-01-11T05:02:20.719Z,8.40
2019-01-11T05:04:48.927Z,8.80
2019-01-11T05:07:17.166Z,7.83
2019-01-11T05:09:45.386Z,8.33
2019-01-11T05:12:13.624Z,8.07
2019-01-11T05:14:41.833Z,10.83
2019-01-11T05:17:10.075Z,8.77
2019-01-11T05:19:38.288Z,7.70
2019-01-11T05:22:06.604Z,21.70
2019-01-11T05:24:34.824Z,31.13
2019-01-11T05:27:03.068Z,13.90
2019-01-11T05:29:31.283Z,16.60
2019-01-11T05:31:59.527Z,11.13
2019-01-11T05:34:27.739Z,10.77
2019-01-11T05:36:55.975Z,9.80
2019-01-11T05:39:24.199Z,10.63
2019-01-11T05:41:52.427Z,10.10
2019-01-11T05:44:20.646Z,14.97
2019-01-11T05:46:48.895Z,14.43
2019-01-11T05:49:17.115Z,14.67
2019-01-11T05:51:45.355Z,8.63
2019-01-11T05:54:13.570Z,7.40
2019-01-11T05:56:41.814Z,7.40
2019-01-11T05:59:10.030Z,7.53
2019-01-11T06:01:38.276Z,17.13
2019-01-11T06:04:08.208Z,11.73
2019-01-11T06:06:54.356Z,8.97
2019-01-11T06:09:22.564Z,16.80
2019-01-11T06:11:50.811Z,15.10
2019-01-11T06:14:19.027Z,12.53
2019-01-11T06:16:47.275Z,10.07
2019-01-11T06:19:15.491Z,10.33
2019-01-11T06:21:44.021Z,12.07
2019-01-11T06:24:12.243Z,13.70
2019-01-11T06:26:40.865Z,12.00
2019-01-11T06:29:09.107Z,14.13
2019-01-11T06:31:37.324Z,13.40
2019-01-11T06:34:05.571Z,10.10
2019-01-11T06:36:33.785Z,7.83
2019-01-11T06:39:02.036Z,9.97
2019-01-11T06:41:31.888Z,10.07
2019-01-11T06:44:00.132Z,8.77
2019-01-11T06:46:28.344Z,10.47
2019-01-11T06:48:56.656Z,9.17
2019-01-11T06:51:24.867Z,10.43
2019-01-11T06:53:53.108Z,12.67
2019-01-11T06:56:21.324Z,15.90
2019-01-11T06:58:49.569Z,13.97
2019-01-11T07:01:17.783Z,10.97
2019-01-11T07:03:46.028Z,13.20
2019-01-11T07:06:14.311Z,12.70
2019-01-11T07:08:42.555Z,20.73
2019-01-11T07:11:10.772Z,16.70
2019-01-11T07:13:39.007Z,9.97
2019-01-11T07:16:07.218Z,13.63
2019-01-11T07:18:35.424Z,51.00
2019-01-11T07:21:03.707Z,107.40
2019-01-11T07:23:31.964Z,120.07
2019-01-11T07:26:00.180Z,93.87
2019-01-11T07:28:28.573Z,36.33
2019-01-11T07:31:01.367Z,19.93
2019-01-11T07:33:29.580Z,9.00
2019-01-11T07:36:16.102Z,10.53
2019-01-11T07:38:44.380Z,8.43
2019-01-11T07:41:12.624Z,11.30
2019-01-11T07:43:40.835Z,8.90
2019-01-11T07:46:09.076Z,10.67
2019-01-11T07:48:37.291Z,16.77
2019-01-11T07:51:05.544Z,14.77
2019-01-11T07:53:34.544Z,6.70
2019-01-11T07:56:02.779Z,7.80
2019-01-11T07:58:30.998Z,8.17
2019-01-11T08:00:59.294Z,6.30
2019-01-11T08:03:27.524Z,9.93
2019-01-11T08:05:55.769Z,7.63
2019-01-11T08:08:23.980Z,8.47
2019-01-11T08:10:52.219Z,10.27
2019-01-11T08:13:20.803Z,9.83
2019-01-11T08:15:49.043Z,9.87
2019-01-11T08:18:17.268Z,10.33
2019-01-11T08:20:45.507Z,14.13
2019-01-11T08:23:13.724Z,9.10
2019-01-11T08:25:41.959Z,12.10
2019-01-11T08:28:10.371Z,12.20
2019-01-11T08:30:38.679Z,14.77
2019-01-11T08:33:06.895Z,16.17
2019-01-11T08:35:35.136Z,11.20
2019-01-11T08:38:03.352Z,13.33
2019-01-11T08:40:31.599Z,13.60
2019-01-11T08:42:59.815Z,12.87
2019-01-11T08:45:28.132Z,12.87
2019-01-11T08:47:56.355Z,14.80
2019-01-11T08:50:24.616Z,13.60
2019-01-11T08:52:52.869Z,10.90
2019-01-11T08:55:21.198Z,10.80
2019-01-11T08:57:49.484Z,7.97
2019-01-11T09:00:17.699Z,7.10
2019-01-11T09:02:45.961Z,7.90
2019-01-11T09:05:14.168Z,6.90
2019-01-11T09:07:42.482Z,7.27
2019-01-11T09:10:12.246Z,7.33
2019-01-11T09:12:40.497Z,6.80
2019-01-11T09:15:08.985Z,7.10
2019-01-11T09:17:38.945Z,8.43
2019-01-11T09:20:07.227Z,7.57
2019-01-11T09:22:35.480Z,11.80
2019-01-11T09:25:04.264Z,5.47
2019-01-11T09:27:32.527Z,6.57
2019-01-11T09:30:00.738Z,6.77
2019-01-11T09:32:28.985Z,6.80
2019-01-11T09:34:57.204Z,5.33
2019-01-11T09:37:25.448Z,5.93
2019-01-11T09:39:53.664Z,7.27
2019-01-11T09:42:21.988Z,10.07
2019-01-11T09:44:50.268Z,7.20
2019-01-11T09:47:18.582Z,6.80
2019-01-11T09:49:46.869Z,7.23
2019-01-11T09:52:15.111Z,7.63
2019-01-11T09:54:43.404Z,7.47
2019-01-11T09:57:11.658Z,10.67
2019-01-11T09:59:39.879Z,6.80
2019-01-11T10:02:25.121Z,6.87
2019-01-11T10:04:53.266Z,7.83
2019-01-11T10:07:28.631Z,7.13
2019-01-11T10:09:56.845Z,8.93
2019-01-11T10:12:25.052Z,8.77
2019-01-11T10:14:53.307Z,12.57
2019-01-11T10:17:21.605Z,10.07
2019-01-11T10:19:50.045Z,10.97
2019-01-11T10:22:18.255Z,6.63
2019-01-11T10:24:46.499Z,7.20
2019-01-11T10:27:14.719Z,10.97
2019-01-11T10:29:42.963Z,8.33
2019-01-11T10:32:11.173Z,7.03
2019-01-11T10:34:39.420Z,9.20
2019-01-11T10:37:07.624Z,6.17
2019-01-11T10:39:35.863Z,9.30
2019-01-11T10:42:04.344Z,12.17
2019-01-11T10:44:32.592Z,10.90
2019-01-11T10:47:00.803Z,8.03
2019-01-11T10:49:29.055Z,11.87
2019-01-11T10:51:57.263Z,8.90
2019-01-11T10:54:27.220Z,12.57
2019-01-11T10:56:55.495Z,6.60
2019-01-11T10:59:23.739Z,11.97
2019-01-11T11:01:51.955Z,17.10
2019-01-11T11:04:20.199Z,14.80
2019-01-11T11:06:48.490Z,12.40
2019-01-11T11:09:16.736Z,8.03
2019-01-11T11:11:44.960Z,5.97
2019-01-11T11:14:13.208Z,17.13
2019-01-11T11:16:41.427Z,16.20
2019-01-11T11:19:09.674Z,13.67
2019-01-11T11:21:37.894Z,17.00
2019-01-11T11:24:06.141Z,16.93
2019-01-11T11:26:34.356Z,16.83
2019-01-11T11:29:02.610Z,19.37
2019-01-11T11:31:30.827Z,11.97
2019-01-11T11:33:59.067Z,13.37
2019-01-11T11:36:27.643Z,16.77
2019-01-11T11:38:55.999Z,7.90
2019-01-11T11:41:24.208Z,9.33
2019-01-11T11:43:52.419Z,16.17
2019-01-11T11:46:20.676Z,14.00
2019-01-11T11:48:48.905Z,19.07
2019-01-11T11:51:17.143Z,20.77
2019-01-11T11:53:45.364Z,18.80
2019-01-11T11:56:13.683Z,19.87
2019-01-11T11:58:41.905Z,11.13
2019-01-11T12:01:10.147Z,7.97
2019-01-11T12:03:38.368Z,14.17
2019-01-11T12:06:06.680Z,9.67
2019-01-11T12:08:35.009Z,8.77
2019-01-11T12:11:03.215Z,19.93
2019-01-11T12:13:34.580Z,20.57
2019-01-11T12:16:01.327Z,25.97
2019-01-11T12:18:29.614Z,5.93
2019-01-11T12:20:57.940Z,15.23
2019-01-11T12:23:26.160Z,14.90
2019-01-11T12:25:54.471Z,14.30
2019-01-11T12:28:22.687Z,18.37
2019-01-11T12:30:50.936Z,20.87
2019-01-11T12:33:19.140Z,6.77
2019-01-11T12:35:47.385Z,20.60
2019-01-11T12:38:15.604Z,14.20
2019-01-11T12:40:43.845Z,14.83
2019-01-11T12:43:12.055Z,10.93
2019-01-11T12:45:40.377Z,19.37
2019-01-11T12:48:08.656Z,10.43
2019-01-11T12:50:36.903Z,22.47
2019-01-11T12:53:05.150Z,11.73
2019-01-11T12:55:33.367Z,14.73
2019-01-11T12:58:01.612Z,21.33
2019-01-11T13:00:29.832Z,21.87
2019-01-11T13:02:58.076Z,9.30
2019-01-11T13:05:26.360Z,16.40
2019-01-11T13:07:54.613Z,17.73
2019-01-11T13:10:22.905Z,14.87
2019-01-11T13:12:51.147Z,12.87
2019-01-11T13:15:19.927Z,7.77
2019-01-11T13:17:48.248Z,17.90
2019-01-11T13:20:17.436Z,20.30
2019-01-11T13:22:46.243Z,17.63
2019-01-11T13:25:14.468Z,8.10
2019-01-11T13:27:42.780Z,20.90
2019-01-11T13:30:15.009Z,15.17
2019-01-11T13:32:43.614Z,7.03
2019-01-11T13:35:11.892Z,9.73
2019-01-11T13:37:40.252Z,13.93
2019-01-11T13:40:09.966Z,18.77
2019-01-11T13:42:38.280Z,9.30
2019-01-11T13:45:06.850Z,25.33
2019-01-11T13:47:35.096Z,22.57
2019-01-11T13:50:05.087Z,23.33
2019-01-11T13:52:33.340Z,18.03
2019-01-11T13:55:01.561Z,11.47
2019-01-11T13:57:29.807Z,12.63
2019-01-11T13:59:58.027Z,12.87
2019-01-11T14:02:26.339Z,7.63
2019-01-11T14:04:54.624Z,22.37
2019-01-11T14:07:22.870Z,20.13
2019-01-11T14:09:51.115Z,21.67
2019-01-11T14:12:19.331Z,13.03
2019-01-11T14:14:47.580Z,16.00
2019-01-11T14:17:15.840Z,16.07
2019-01-11T14:19:44.075Z,15.87
2019-01-11T14:22:13.813Z,13.43
2019-01-11T14:24:42.317Z,10.93
2019-01-11T14:27:10.536Z,13.20
2019-01-11T14:29:38.784Z,16.70
2019-01-11T14:32:07.074Z,14.67
2019-01-11T14:34:35.384Z,21.83
2019-01-11T14:37:03.672Z,18.10
2019-01-11T14:39:31.915Z,16.73
2019-01-11T14:42:00.303Z,6.17
2019-01-11T14:44:28.612Z,11.43
2019-01-11T14:46:56.825Z,10.00
2019-01-11T14:49:25.068Z,9.97
2019-01-11T14:51:53.287Z,17.97
2019-01-11T14:54:21.565Z,20.37
2019-01-11T14:56:49.783Z,6.27
2019-01-11T14:59:18.027Z,6.00
2019-01-11T15:01:46.323Z,20.97
2019-01-11T15:04:14.555Z,13.37
2019-01-11T15:06:42.769Z,8.13
2019-01-11T15:09:11.076Z,9.57
2019-01-11T15:11:39.289Z,6.93
2019-01-11T15:14:07.535Z,9.07
2019-01-11T15:16:35.756Z,15.60
2019-01-11T15:19:04.275Z,14.63
2019-01-11T15:21:32.559Z,16.67
2019-01-11T15:24:00.776Z,11.07
2019-01-11T15:26:29.023Z,17.43
2019-01-11T15:28:57.239Z,14.43
2019-01-11T15:31:25.484Z,16.33
2019-01-11T15:33:53.725Z,6.83
2019-01-11T15:36:23.151Z,6.87
2019-01-11T15:38:51.403Z,10.80
2019-01-11T15:41:19.711Z,8.70
2019-01-11T15:43:47.942Z,13.03
2019-01-11T15:46:16.183Z,9.87
2019-01-11T15:48:45.465Z,11.60
2019-01-11T15:51:14.571Z,6.60
2019-01-11T15:53:42.919Z,9.37
2019-01-11T15:56:11.236Z,13.87
2019-01-11T15:58:39.451Z,14.43
2019-01-11T16:01:07.764Z,8.40
2019-01-11T16:03:35.984Z,14.13
2019-01-11T16:06:24.188Z,13.37
2019-01-11T16:08:53.931Z,8.97
2019-01-11T16:11:29.627Z,10.37
2019-01-11T16:13:59.384Z,9.10
2019-01-11T16:16:27.696Z,5.57
2019-01-11T16:18:55.916Z,13.90
2019-01-11T16:21:24.231Z,17.85
2019-01-11T16:23:55.444Z,15.45
2019-01-11T16:26:23.688Z,9.60
2019-01-11T16:28:51.972Z,6.03
2019-01-11T16:31:20.295Z,10.73
2019-01-11T16:33:48.585Z,12.20
2019-01-11T16:36:18.435Z,18.43
2019-01-11T16:38:46.687Z,13.87
2019-01-11T16:41:14.963Z,7.13
2019-01-11T16:43:43.203Z,10.03
2019-01-11T16:46:11.479Z,9.57
2019-01-11T16:48:39.737Z,10.00
2019-01-11T16:51:07.971Z,7.53
2019-01-11T16:53:38.909Z,9.77
2019-01-11T16:56:07.124Z,20.23
2019-01-11T16:58:35.430Z,11.37
2019-01-11T17:01:03.631Z,8.33
2019-01-11T17:03:31.963Z,12.03
2019-01-11T17:06:00.190Z,16.53
2019-01-11T17:08:29.419Z,11.00
2019-01-11T17:10:57.620Z,8.93
2019-01-11T17:13:25.876Z,11.13
2019-01-11T17:15:54.083Z,7.10
2019-01-11T17:18:22.336Z,13.00
2019-01-11T17:20:50.539Z,9.70
2019-01-11T17:23:18.804Z,10.83
2019-01-11T17:25:47.099Z,12.37
2019-01-11T17:28:15.347Z,8.10
2019-01-11T17:30:43.635Z,12.40
2019-01-11T17:43:19.661Z,8.53
2019-01-11T17:45:49.522Z,9.43
2019-01-11T17:51:33.522Z,9.23
2019-01-11T17:58:19.251Z,17.37
2019-01-11T18:00:25.930Z,8.57
2019-01-11T18:09:01.910Z,9.50
2019-01-11T18:11:30.221Z,8.47
2019-01-11T18:13:59.009Z,8.00
2019-01-11T18:16:27.220Z,7.97
2019-01-11T18:18:55.540Z,10.40
2019-01-11T18:21:23.757Z,6.80
2019-01-11T18:23:52.012Z,16.13
2019-01-11T18:26:21.791Z,10.73
2019-01-11T18:28:51.732Z,13.13
2019-01-11T18:31:22.637Z,18.77
2019-01-11T18:34:06.083Z,8.17
2019-01-11T18:36:37.466Z,11.40
2019-01-11T18:39:16.931Z,11.53
2019-01-11T18:53:54.766Z,9.60
2019-01-11T18:56:30.601Z,13.03
2019-01-11T18:58:59.889Z,10.80
2019-01-11T19:01:28.127Z,10.70
2019-01-11T19:03:56.352Z,16.27
2019-01-11T19:06:24.667Z,11.67
2019-01-11T19:08:52.884Z,11.80
2019-01-11T19:11:21.132Z,9.70
2019-01-11T19:13:49.349Z,14.47
2019-01-11T19:16:17.580Z,8.40
2019-01-11T19:18:45.797Z,16.97
2019-01-11T19:21:14.048Z,16.63
2019-01-11T19:23:42.340Z,11.27
2019-01-11T19:26:10.648Z,8.53
2019-01-11T19:28:38.864Z,14.33
2019-01-11T19:31:07.118Z,10.50
2019-01-11T19:33:35.335Z,17.03
2019-01-11T19:36:03.733Z,10.30
2019-01-11T19:38:32.081Z,11.20
2019-01-11T19:41:00.329Z,11.63
2019-01-11T19:43:28.542Z,27.20
2019-01-11T19:45:56.788Z,13.97
2019-01-11T19:48:24.995Z,8.97
2019-01-11T19:50:53.261Z,16.07
2019-01-11T19:53:27.523Z,8.37
2019-01-11T19:55:51.374Z,9.50
2019-01-11T19:58:19.571Z,9.00
2019-01-11T20:00:47.819Z,10.10
2019-01-11T20:03:16.050Z,10.67
2019-01-11T20:05:44.338Z,9.37
2019-01-11T20:08:12.568Z,7.53
2019-01-11T20:10:40.784Z,8.27
2019-01-11T20:13:09.016Z,8.13
2019-01-11T20:15:37.298Z,9.30
2019-01-11T20:18:05.613Z,7.93
2019-01-11T20:20:33.887Z,8.87
2019-01-11T20:23:02.785Z,7.63
2019-01-11T20:25:31.147Z,8.50
2019-01-11T20:27:59.383Z,8.47
2019-01-11T20:30:27.872Z,8.60
2019-01-11T20:32:56.121Z,8.50
2019-01-11T20:35:24.394Z,7.07
2019-01-11T20:37:52.713Z,12.50
2019-01-11T20:40:20.978Z,15.83
2019-01-11T20:42:49.238Z,10.70
2019-01-11T20:45:18.424Z,21.37
2019-01-11T20:47:46.636Z,8.60
2019-01-11T20:50:18.820Z,9.53
2019-01-11T20:52:47.145Z,14.47
2019-01-11T20:55:15.364Z,10.13
2019-01-11T20:57:43.758Z,19.40
2019-01-11T21:00:13.528Z,9.90
2019-01-11T21:02:41.812Z,10.37
2019-01-11T21:05:10.128Z,12.43
2019-01-11T21:07:38.416Z,11.00
2019-01-11T21:10:07.823Z,11.10
2019-01-11T21:12:36.044Z,18.90
2019-01-11T21:15:06.061Z,16.60
2019-01-11T21:17:34.279Z,17.33
2019-01-11T21:20:02.591Z,15.33
2019-01-11T21:22:30.799Z,7.60
2019-01-11T21:25:00.293Z,7.87
2019-01-11T21:27:28.864Z,9.93
2019-01-11T21:29:57.099Z,7.67
2019-01-11T21:32:25.307Z,8.70
2019-01-11T21:34:53.549Z,8.20
2019-01-11T21:37:21.764Z,8.30
2019-01-11T21:39:49.995Z,9.63
2019-01-11T21:42:19.238Z,11.90
2019-01-11T21:44:47.569Z,10.97
2019-01-11T21:47:15.772Z,9.10
2019-01-11T21:49:44.017Z,8.87
2019-01-11T21:52:12.240Z,13.73
2019-01-11T21:54:40.492Z,14.03
2019-01-11T21:57:08.780Z,11.70
2019-01-11T21:59:37.019Z,13.57
2019-01-11T22:02:05.231Z,19.63
2019-01-11T22:04:33.479Z,17.47
2019-01-11T22:07:01.700Z,14.17
2019-01-11T22:09:29.953Z,16.63
2019-01-11T22:11:58.171Z,23.97
2019-01-11T22:14:31.665Z,15.40
2019-01-11T22:16:59.818Z,13.73
2019-01-11T22:19:28.068Z,14.60
2019-01-11T22:21:56.280Z,17.73
2019-01-11T22:24:24.523Z,13.37
2019-01-11T22:26:52.732Z,5.80
2019-01-11T22:29:20.980Z,10.60
2019-01-11T22:31:49.196Z,12.10
2019-01-11T22:34:17.435Z,17.97
2019-01-11T22:36:45.659Z,20.87
2019-01-11T22:39:13.908Z,16.90
2019-01-11T22:41:42.156Z,21.23
2019-01-11T22:44:10.372Z,6.47
2019-01-11T22:46:38.610Z,16.30
2019-01-11T22:49:06.828Z,21.33
2019-01-11T22:51:35.075Z,12.60
2019-01-11T22:54:10.065Z,17.53
2019-01-11T22:56:33.195Z,20.27
2019-01-11T22:59:01.443Z,13.63
2019-01-11T23:01:34.337Z,7.60
2019-01-11T23:04:02.587Z,15.57
2019-01-11T23:06:32.338Z,12.23
2019-01-11T23:09:00.553Z,19.07
2019-01-11T23:11:30.331Z,20.43
2019-01-11T23:13:58.547Z,20.73
2019-01-11T23:16:28.359Z,11.77
2019-01-11T23:18:56.747Z,18.47
2019-01-11T23:21:25.063Z,19.77
2019-01-11T23:23:53.282Z,18.67
2019-01-11T23:26:21.531Z,26.33
2019-01-11T23:28:49.747Z,13.17
2019-01-11T23:31:18.002Z,14.53
2019-01-11T23:33:46.208Z,15.53
2019-01-11T23:36:14.449Z,14.33
2019-01-11T23:38:42.656Z,9.43
2019-01-11T23:41:10.909Z,21.87
2019-01-11T23:43:39.136Z,13.30
2019-01-11T23:46:07.383Z,21.63
2019-01-11T23:48:35.603Z,18.37
2019-01-11T23:51:04.015Z,11.00
2019-01-11T23:53:32.164Z,23.80
2019-01-11T23:56:01.293Z,15.20
2019-01-11T23:58:29.504Z,19.57
